createdAt,value
2017-04-03T19:28:41.077Z,14.25
2017-04-03T19:29:55.371Z,14.07
2017-04-03T19:31:09.481Z,13.86
2017-04-03T19:32:24.263Z,13.75
2017-04-03T19:33:40.292Z,13.73
2017-04-03T19:34:55.988Z,13.58
2017-04-03T19:36:12.544Z,13.58
2017-04-03T19:37:28.272Z,13.57
2017-04-03T19:38:42.127Z,13.46
2017-04-03T19:39:55.631Z,13.4
2017-04-03T19:41:09.887Z,13.42
2017-04-03T19:42:25.945Z,13.39
2017-04-03T19:43:40.669Z,13.37
2017-04-03T19:44:55.021Z,13.4
2017-04-03T19:46:47.891Z,13.24
2017-04-03T19:48:09.063Z,13.33
2017-04-03T19:49:23.382Z,13.23
2017-04-03T19:50:38.559Z,13.23
2017-04-03T19:51:53.734Z,13.3
2017-04-03T19:53:11.077Z,13.24
2017-04-03T19:54:26.372Z,13.19
2017-04-03T19:55:49.217Z,13.12
2017-04-03T19:57:04.265Z,13.13
2017-04-03T19:58:19.317Z,13.11
2017-04-03T19:59:34.196Z,13.11
2017-04-03T20:00:48.797Z,13.11
2017-04-03T20:02:02.583Z,12.95
2017-04-03T20:03:24.135Z,12.98
2017-04-03T20:04:38.779Z,13.02
2017-04-03T20:05:54.184Z,12.98
2017-04-03T20:07:10.549Z,12.88
2017-04-03T20:08:27.585Z,12.9
2017-04-03T20:09:41.730Z,12.8
2017-04-03T20:10:56.016Z,12.84
2017-04-03T20:12:09.799Z,12.76
2017-04-03T20:13:24.190Z,12.68
2017-04-03T20:14:37.867Z,12.8
2017-04-03T20:15:52.298Z,12.63
2017-04-03T20:17:06.331Z,12.72
2017-04-03T20:18:20.738Z,12.68
2017-04-03T20:19:35.388Z,12.66
2017-04-03T20:20:50.043Z,12.63
2017-04-03T20:22:04.445Z,12.68
2017-04-03T20:23:18.978Z,12.58
2017-04-03T20:24:33.183Z,12.63
2017-04-03T20:25:47.718Z,12.69
2017-04-03T20:27:01.401Z,12.65
2017-04-03T20:28:16.330Z,12.62
2017-04-03T20:29:29.950Z,12.58
2017-04-03T20:30:44.234Z,12.61
2017-04-03T20:31:59.238Z,12.45
2017-04-03T20:33:13.305Z,12.44
2017-04-03T20:34:28.712Z,12.47
2017-04-03T20:35:43.106Z,12.36
2017-04-03T20:36:57.235Z,12.32
2017-04-03T20:38:11.605Z,12.28
2017-04-03T20:39:25.256Z,12.33
2017-04-03T20:40:39.551Z,12.33
2017-04-03T20:41:53.962Z,12.32
2017-04-03T20:43:08.727Z,12.26
2017-04-03T20:44:22.331Z,12.36
2017-04-03T20:47:07.456Z,12.26
2017-04-03T20:48:21.450Z,12.23
2017-04-03T20:49:35.847Z,12.2
2017-04-03T20:50:50.085Z,12.28
2017-04-03T20:52:15.942Z,12.21
2017-04-03T20:53:30.252Z,12.15
2017-04-03T20:54:44.514Z,12.11
2017-04-03T20:55:59.350Z,12.2
2017-04-03T20:57:14.614Z,12.11
2017-04-03T20:58:28.854Z,12.05
2017-04-03T20:59:43.183Z,12.12
2017-04-03T21:00:57.197Z,12.03
2017-04-03T21:02:11.582Z,12.03
2017-04-03T21:03:26.012Z,12
2017-04-03T21:04:40.895Z,12.1
2017-04-03T21:05:54.698Z,12.1
2017-04-03T21:07:09.784Z,12.02
2017-04-03T21:08:23.869Z,12.03
2017-04-03T21:09:38.191Z,12.02
2017-04-03T21:10:52.922Z,11.99
2017-04-03T21:12:07.512Z,12
2017-04-03T21:13:21.149Z,11.96
2017-04-03T21:14:34.990Z,12
2017-04-03T21:15:48.895Z,11.97
2017-04-03T21:17:03.066Z,12
2017-04-03T21:18:16.687Z,11.96
2017-04-03T21:19:48.157Z,11.95
2017-04-03T21:21:01.961Z,11.89
2017-04-03T21:22:15.862Z,11.96
2017-04-03T21:23:29.790Z,11.85
2017-04-03T21:24:43.781Z,11.85
2017-04-03T21:25:57.822Z,11.81
2017-04-03T21:27:12.014Z,11.73
2017-04-03T21:28:25.986Z,11.76
2017-04-03T21:29:40.036Z,11.85
2017-04-03T21:30:53.985Z,11.78
2017-04-03T21:32:07.969Z,11.81
2017-04-03T21:33:22.144Z,11.78
2017-04-03T21:34:35.726Z,11.71
2017-04-03T21:35:49.691Z,11.76
2017-04-03T21:37:04.445Z,11.83
2017-04-03T21:38:18.261Z,11.74
2017-04-03T21:39:32.097Z,11.73
2017-04-03T21:40:46.594Z,11.74
2017-04-03T21:42:00.674Z,11.7
2017-04-03T21:43:14.914Z,11.63
2017-04-03T21:44:28.864Z,11.68
2017-04-03T21:45:43.360Z,11.71
2017-04-03T21:46:56.998Z,11.68
2017-04-03T21:48:11.471Z,11.7
2017-04-03T21:49:25.481Z,11.68
2017-04-03T21:50:39.682Z,11.62
2017-04-03T21:51:53.536Z,11.53
2017-04-03T21:53:07.504Z,11.58
2017-04-03T21:54:21.513Z,11.67
2017-04-03T21:55:35.310Z,11.6
2017-04-03T21:56:48.872Z,11.59
2017-04-03T21:58:03.682Z,11.62
2017-04-03T21:59:17.242Z,11.55
2017-04-03T22:00:31.580Z,11.63
2017-04-03T22:01:45.175Z,11.56
2017-04-03T22:02:59.140Z,11.53
2017-04-03T22:04:15.907Z,11.56
2017-04-03T22:05:30.286Z,11.55
2017-04-03T22:06:44.167Z,11.52
2017-04-03T22:07:59.905Z,11.55
2017-04-03T22:09:13.669Z,11.56
2017-04-03T22:10:28.954Z,11.56
2017-04-03T22:11:42.742Z,11.53
2017-04-03T22:12:57.663Z,11.51
2017-04-03T22:14:12.159Z,11.49
2017-04-03T22:15:27.040Z,11.53
2017-04-03T22:16:41.028Z,11.56
2017-04-03T22:17:55.642Z,11.48
2017-04-03T22:19:09.610Z,11.55
2017-04-03T22:20:23.483Z,11.55
2017-04-03T22:21:37.426Z,11.52
2017-04-03T22:22:51.860Z,11.44
2017-04-03T22:24:07.059Z,11.52
2017-04-03T22:25:21.693Z,11.41
2017-04-03T22:26:35.223Z,11.55
2017-04-03T22:27:49.120Z,11.52
2017-04-03T22:29:03.807Z,11.34
2017-04-03T22:30:17.595Z,11.41
2017-04-03T22:31:31.176Z,11.38
2017-04-03T22:32:46.255Z,11.3
2017-04-03T22:34:00.591Z,11.33
2017-04-03T22:35:15.525Z,11.33
2017-04-03T22:36:29.342Z,11.34
2017-04-03T22:37:44.476Z,11.3
2017-04-03T22:38:58.093Z,11.27
2017-04-03T22:40:29.948Z,11.27
2017-04-03T22:41:43.636Z,11.3
2017-04-03T22:42:59.831Z,11.19
2017-04-03T22:44:14.100Z,11.31
2017-04-03T22:45:28.273Z,11.27
2017-04-03T22:46:43.311Z,11.26
2017-04-03T22:47:57.215Z,11.26
2017-04-03T22:49:12.036Z,11.23
2017-04-03T22:50:25.649Z,11.25
2017-04-03T22:51:40.270Z,11.19
2017-04-03T22:52:53.906Z,11.18
2017-04-03T22:54:07.707Z,11.22
2017-04-03T22:55:21.311Z,11.12
2017-04-03T22:56:51.764Z,11.15
2017-04-03T22:58:06.273Z,11.1
2017-04-03T22:59:20.187Z,11.15
2017-04-03T23:00:34.248Z,11.15
2017-04-03T23:01:47.918Z,11.1
2017-04-03T23:03:02.020Z,11.04
2017-04-03T23:04:16.300Z,11.04
2017-04-03T23:05:30.994Z,11.01
2017-04-03T23:06:44.932Z,11.04
2017-04-03T23:07:59.274Z,11.04
2017-04-03T23:09:13.266Z,11.04
2017-04-03T23:10:27.424Z,11.01
2017-04-03T23:11:41.326Z,10.94
2017-04-03T23:12:56.536Z,11.02
2017-04-03T23:14:10.439Z,10.87
2017-04-03T23:15:26.672Z,10.92
2017-04-03T23:16:40.228Z,10.94
2017-04-03T23:17:54.142Z,11.02
2017-04-03T23:19:08.387Z,10.94
2017-04-03T23:20:22.921Z,10.94
2017-04-03T23:21:38.992Z,10.89
2017-04-03T23:22:53.105Z,10.9
2017-04-03T23:24:06.640Z,10.94
2017-04-03T23:25:21.038Z,10.87
2017-04-03T23:26:34.942Z,10.92
2017-04-03T23:27:49.397Z,10.9
2017-04-03T23:29:03.255Z,10.86
2017-04-03T23:30:17.571Z,10.86
2017-04-03T23:31:31.615Z,10.77
2017-04-03T23:32:45.773Z,10.77
2017-04-03T23:33:59.981Z,10.75
2017-04-03T23:35:14.428Z,10.82
2017-04-03T23:36:28.055Z,10.76
2017-04-03T23:37:43.412Z,10.79
2017-04-03T23:38:56.970Z,10.79
2017-04-03T23:40:11.280Z,10.76
2017-04-03T23:41:25.586Z,10.76
2017-04-03T23:42:39.687Z,10.67
2017-04-03T23:43:53.242Z,10.8
2017-04-03T23:45:07.493Z,10.67
2017-04-03T23:46:21.715Z,10.69
2017-04-03T23:47:36.284Z,10.65
2017-04-03T23:48:49.830Z,10.65
2017-04-03T23:50:04.234Z,10.68
2017-04-03T23:51:17.901Z,10.65
2017-04-03T23:52:32.344Z,10.61
2017-04-03T23:53:46.457Z,10.61
2017-04-03T23:55:00.258Z,10.58
2017-04-03T23:56:13.796Z,10.61
2017-04-03T23:57:27.811Z,10.58
2017-04-03T23:58:41.384Z,10.59
